sensor_id;sensor_type;location;lat;lon;timestamp;P1;durP1;ratioP1;P2;durP2;ratioP2
57321;SDS011;43159;51.006;18.224;2023-03-01T00:04:00;25.90;;;10.30;;
57321;SDS011;43159;51.006;18.224;2023-03-01T00:13:54;28.90;;;12.80;;
57321;SDS011;43159;51.006;18.224;2023-03-01T00:23:47;33.20;;;9.70;;
57321;SDS011;43159;51.006;18.224;2023-03-01T00:33:51;28.10;;;11.60;;
57321;SDS011;43159;51.006;18.224;2023-03-01T00:44:42;23.70;;;6.50;;
57321;SDS011;43159;51.006;18.224;2023-03-01T00:55:01;30.10;;;10.50;;
57321;SDS011;43159;51.006;18.224;2023-03-01T01:05:45;52.20;;;16.30;;
57321;SDS011;43159;51.006;18.224;2023-03-01T01:16:36;45.70;;;16.70;;
57321;SDS011;43159;51.006;18.224;2023-03-01T01:27:09;48.50;;;15.70;;
57321;SDS011;43159;51.006;18.224;2023-03-01T01:38:42;31.40;;;12.00;;
57321;SDS011;43159;51.006;18.224;2023-03-01T01:49:57;56.10;;;18.30;;
57321;SDS011;43159;51.006;18.224;2023-03-01T02:01:38;46.00;;;13.00;;
57321;SDS011;43159;51.006;18.224;2023-03-01T02:13:06;42.30;;;16.80;;
57321;SDS011;43159;51.006;18.224;2023-03-01T02:23:28;29.00;;;11.90;;
57321;SDS011;43159;51.006;18.224;2023-03-01T02:34:28;41.80;;;14.60;;
57321;SDS011;43159;51.006;18.224;2023-03-01T02:58:51;38.10;;;14.90;;
57321;SDS011;43159;51.006;18.224;2023-03-01T03:04:41;85.70;;;39.70;;
57321;SDS011;43159;51.006;18.224;2023-03-01T03:29:41;32.20;;;10.70;;
57321;SDS011;43159;51.006;18.224;2023-03-01T03:41:09;33.10;;;10.10;;
57321;SDS011;43159;51.006;18.224;2023-03-01T04:06:42;46.40;;;16.00;;
57321;SDS011;43159;51.006;18.224;2023-03-01T04:18:22;45.40;;;14.90;;
57321;SDS011;43159;51.006;18.224;2023-03-01T04:30:03;46.80;;;16.20;;
57321;SDS011;43159;51.006;18.224;2023-03-01T04:55:56;67.20;;;20.50;;
57321;SDS011;43159;51.006;18.224;2023-03-01T05:09:08;34.60;;;16.40;;
57321;SDS011;43159;51.006;18.224;2023-03-01T05:19:49;26.20;;;10.10;;
57321;SDS011;43159;51.006;18.224;2023-03-01T05:29:32;24.40;;;10.10;;
57321;SDS011;43159;51.006;18.224;2023-03-01T05:39:19;31.40;;;11.70;;
57321;SDS011;43159;51.006;18.224;2023-03-01T05:49:05;61.20;;;20.20;;
57321;SDS011;43159;51.006;18.224;2023-03-01T05:58:48;59.90;;;24.90;;
57321;SDS011;43159;51.006;18.224;2023-03-01T06:08:31;74.50;;;25.80;;
57321;SDS011;43159;51.006;18.224;2023-03-01T06:18:14;52.90;;;27.60;;
57321;SDS011;43159;51.006;18.224;2023-03-01T06:27:56;57.40;;;27.80;;
57321;SDS011;43159;51.006;18.224;2023-03-01T06:37:42;60.60;;;31.90;;
57321;SDS011;43159;51.006;18.224;2023-03-01T06:47:28;60.00;;;28.00;;
57321;SDS011;43159;51.006;18.224;2023-03-01T06:57:10;47.20;;;26.20;;
57321;SDS011;43159;51.006;18.224;2023-03-01T07:06:54;43.00;;;24.50;;
57321;SDS011;43159;51.006;18.224;2023-03-01T07:16:38;54.20;;;28.10;;
57321;SDS011;43159;51.006;18.224;2023-03-01T07:26:21;51.70;;;28.90;;
57321;SDS011;43159;51.006;18.224;2023-03-01T07:36:04;52.00;;;30.20;;
57321;SDS011;43159;51.006;18.224;2023-03-01T07:45:50;45.00;;;24.30;;
57321;SDS011;43159;51.006;18.224;2023-03-01T07:55:32;42.00;;;27.40;;
57321;SDS011;43159;51.006;18.224;2023-03-01T08:05:15;45.00;;;30.50;;
57321;SDS011;43159;51.006;18.224;2023-03-01T08:14:58;42.60;;;27.30;;
57321;SDS011;43159;51.006;18.224;2023-03-01T08:24:40;33.40;;;22.40;;
57321;SDS011;43159;51.006;18.224;2023-03-01T08:34:22;32.90;;;22.80;;
57321;SDS011;43159;51.006;18.224;2023-03-01T08:44:07;39.00;;;25.50;;
57321;SDS011;43159;51.006;18.224;2023-03-01T08:54:15;33.70;;;20.70;;
57321;SDS011;43159;51.006;18.224;2023-03-01T09:04:01;26.40;;;18.70;;
57321;SDS011;43159;51.006;18.224;2023-03-01T09:13:45;33.60;;;16.10;;
57321;SDS011;43159;51.006;18.224;2023-03-01T09:23:37;18.70;;;11.90;;
57321;SDS011;43159;51.006;18.224;2023-03-01T09:33:24;22.60;;;14.80;;
57321;SDS011;43159;51.006;18.224;2023-03-01T09:53:34;19.90;;;13.50;;
57321;SDS011;43159;51.006;18.224;2023-03-01T10:03:58;32.60;;;19.50;;
57321;SDS011;43159;51.006;18.224;2023-03-01T10:23:51;21.30;;;13.90;;
57321;SDS011;43159;51.006;18.224;2023-03-01T10:33:39;29.40;;;15.00;;
57321;SDS011;43159;51.006;18.224;2023-03-01T10:43:42;18.10;;;12.40;;
57321;SDS011;43159;51.006;18.224;2023-03-01T10:53:50;23.10;;;13.90;;
57321;SDS011;43159;51.006;18.224;2023-03-01T11:04:18;25.00;;;15.50;;
57321;SDS011;43159;51.006;18.224;2023-03-01T11:14:17;21.20;;;13.10;;
57321;SDS011;43159;51.006;18.224;2023-03-01T11:24:26;20.40;;;11.20;;
57321;SDS011;43159;51.006;18.224;2023-03-01T11:44:39;18.30;;;10.70;;
57321;SDS011;43159;51.006;18.224;2023-03-01T11:54:48;26.70;;;11.90;;
57321;SDS011;43159;51.006;18.224;2023-03-01T12:05:20;19.50;;;12.70;;
57321;SDS011;43159;51.006;18.224;2023-03-01T12:15:23;21.10;;;13.30;;
57321;SDS011;43159;51.006;18.224;2023-03-01T12:47:02;25.10;;;11.80;;
57321;SDS011;43159;51.006;18.224;2023-03-01T12:57:47;29.10;;;14.60;;
57321;SDS011;43159;51.006;18.224;2023-03-01T13:08:49;29.60;;;15.30;;
57321;SDS011;43159;51.006;18.224;2023-03-01T13:39:46;18.00;;;8.30;;
57321;SDS011;43159;51.006;18.224;2023-03-01T13:59:48;19.00;;;9.70;;
57321;SDS011;43159;51.006;18.224;2023-03-01T14:09:44;26.80;;;14.00;;
57321;SDS011;43159;51.006;18.224;2023-03-01T14:20:00;28.50;;;12.50;;
57321;SDS011;43159;51.006;18.224;2023-03-01T14:30:00;27.00;;;14.00;;
57321;SDS011;43159;51.006;18.224;2023-03-01T14:39:47;11.60;;;5.30;;
57321;SDS011;43159;51.006;18.224;2023-03-01T14:49:31;31.90;;;16.00;;
57321;SDS011;43159;51.006;18.224;2023-03-01T14:59:32;15.10;;;5.80;;
57321;SDS011;43159;51.006;18.224;2023-03-01T15:09:17;25.00;;;13.90;;
57321;SDS011;43159;51.006;18.224;2023-03-01T15:19:19;30.10;;;11.00;;
57321;SDS011;43159;51.006;18.224;2023-03-01T15:29:30;28.80;;;12.10;;
57321;SDS011;43159;51.006;18.224;2023-03-01T15:39:35;32.50;;;13.80;;
57321;SDS011;43159;51.006;18.224;2023-03-01T15:49:35;28.80;;;12.70;;
57321;SDS011;43159;51.006;18.224;2023-03-01T15:59:20;36.80;;;16.20;;
57321;SDS011;43159;51.006;18.224;2023-03-01T16:09:21;64.70;;;19.60;;
57321;SDS011;43159;51.006;18.224;2023-03-01T16:19:09;53.50;;;15.20;;
57321;SDS011;43159;51.006;18.224;2023-03-01T16:28:54;41.10;;;12.60;;
57321;SDS011;43159;51.006;18.224;2023-03-01T16:38:41;38.00;;;15.30;;
57321;SDS011;43159;51.006;18.224;2023-03-01T16:48:29;21.20;;;7.30;;
57321;SDS011;43159;51.006;18.224;2023-03-01T16:58:18;17.30;;;6.40;;
57321;SDS011;43159;51.006;18.224;2023-03-01T17:08:00;44.20;;;18.10;;
57321;SDS011;43159;51.006;18.224;2023-03-01T17:17:41;45.70;;;18.80;;
57321;SDS011;43159;51.006;18.224;2023-03-01T17:27:25;50.20;;;18.10;;
57321;SDS011;43159;51.006;18.224;2023-03-01T17:37:07;66.60;;;18.90;;
57321;SDS011;43159;51.006;18.224;2023-03-01T17:46:51;56.30;;;19.70;;
57321;SDS011;43159;51.006;18.224;2023-03-01T17:56:35;44.80;;;17.70;;
57321;SDS011;43159;51.006;18.224;2023-03-01T18:06:21;76.30;;;23.20;;
57321;SDS011;43159;51.006;18.224;2023-03-01T18:16:06;105.90;;;31.20;;
57321;SDS011;43159;51.006;18.224;2023-03-01T18:25:56;143.10;;;44.50;;
57321;SDS011;43159;51.006;18.224;2023-03-01T18:30:54;174.10;;;64.30;;
57321;SDS011;43159;51.006;18.224;2023-03-01T18:40:41;68.20;;;23.30;;
57321;SDS011;43159;51.006;18.224;2023-03-01T18:50:24;28.10;;;12.10;;
57321;SDS011;43159;51.006;18.224;2023-03-01T19:00:06;145.50;;;58.20;;
57321;SDS011;43159;51.006;18.224;2023-03-01T19:09:49;52.10;;;21.70;;
57321;SDS011;43159;51.006;18.224;2023-03-01T19:19:32;84.20;;;27.40;;
57321;SDS011;43159;51.006;18.224;2023-03-01T19:29:14;137.80;;;49.60;;
57321;SDS011;43159;51.006;18.224;2023-03-01T19:39:06;128.80;;;40.60;;
57321;SDS011;43159;51.006;18.224;2023-03-01T19:48:50;86.60;;;29.70;;
57321;SDS011;43159;51.006;18.224;2023-03-01T19:58:33;113.10;;;29.90;;
57321;SDS011;43159;51.006;18.224;2023-03-01T20:08:17;67.70;;;19.40;;
57321;SDS011;43159;51.006;18.224;2023-03-01T20:17:59;81.30;;;27.50;;
57321;SDS011;43159;51.006;18.224;2023-03-01T20:27:42;180.60;;;48.10;;
57321;SDS011;43159;51.006;18.224;2023-03-01T20:37:30;134.20;;;38.60;;
57321;SDS011;43159;51.006;18.224;2023-03-01T20:47:12;209.50;;;53.90;;
57321;SDS011;43159;51.006;18.224;2023-03-01T20:56:55;107.20;;;26.60;;
57321;SDS011;43159;51.006;18.224;2023-03-01T21:06:37;51.10;;;19.50;;
57321;SDS011;43159;51.006;18.224;2023-03-01T21:16:20;46.30;;;15.80;;
57321;SDS011;43159;51.006;18.224;2023-03-01T21:36:01;81.00;;;27.60;;
57321;SDS011;43159;51.006;18.224;2023-03-01T21:45:45;85.40;;;27.90;;
57321;SDS011;43159;51.006;18.224;2023-03-01T21:55:29;98.60;;;36.30;;
57321;SDS011;43159;51.006;18.224;2023-03-01T22:05:13;67.10;;;29.00;;
57321;SDS011;43159;51.006;18.224;2023-03-01T22:14:57;155.60;;;41.60;;
57321;SDS011;43159;51.006;18.224;2023-03-01T22:24:40;100.90;;;36.40;;
57321;SDS011;43159;51.006;18.224;2023-03-01T22:34:22;94.40;;;21.60;;
57321;SDS011;43159;51.006;18.224;2023-03-01T22:44:09;105.60;;;34.80;;
57321;SDS011;43159;51.006;18.224;2023-03-01T22:53:56;87.40;;;25.90;;
57321;SDS011;43159;51.006;18.224;2023-03-01T23:03:42;171.30;;;48.60;;
57321;SDS011;43159;51.006;18.224;2023-03-01T23:13:26;123.00;;;36.60;;
57321;SDS011;43159;51.006;18.224;2023-03-01T23:23:09;57.90;;;24.00;;
57321;SDS011;43159;51.006;18.224;2023-03-01T23:32:51;130.50;;;40.40;;
57321;SDS011;43159;51.006;18.224;2023-03-01T23:42:36;161.30;;;44.70;;
57321;SDS011;43159;51.006;18.224;2023-03-01T23:52:18;70.30;;;26.90;;
